Estación de Los Angeles
Ultimos registro cada 15 minutos 67
| N° | Estación | Fecha / Hora | Temperatura | Humedad | Lluvia | Velocidad | Dirección | Radiación | Presion |
| 67 | Los Angeles | 06-05-2026 16:30 | 14,2 | 76,5 | 0 | 0,3 | 149 | 43,1 | 1007,6 |
| 66 | Los Angeles | 06-05-2026 16:15 | 15,1 | 72,6 | 0 | 0,7 | 110 | 48,1 | 1007,2 |
| 65 | Los Angeles | 06-05-2026 16:00 | 15,6 | 68,7 | 0 | 0,7 | 216 | 146,9 | 1006,9 |
| 64 | Los Angeles | 06-05-2026 15:45 | 16,1 | 64,7 | 0 | 1,3 | 250 | 215,6 | 1006,5 |
| 63 | Los Angeles | 06-05-2026 15:30 | 16,8 | 64,2 | 0 | 1 | 314 | 454,4 | 1006,1 |
| 62 | Los Angeles | 06-05-2026 15:15 | 16 | 66,4 | 0 | 1 | 306 | 241,9 | 1005,7 |
| 61 | Los Angeles | 06-05-2026 15:00 | 17 | 66,2 | 0 | 1 | 296 | 149,4 | 1005,3 |
| 60 | Los Angeles | 06-05-2026 14:45 | 20,1 | 61,5 | 0 | 1 | 289 | 678,1 | 1004,8 |
| 59 | Los Angeles | 06-05-2026 14:30 | 19,1 | 65,3 | 0 | 1 | 310 | 641,9 | 1004,4 |
| 58 | Los Angeles | 06-05-2026 14:15 | 18,5 | 65,8 | 0 | 1,3 | 291 | 586,9 | 1004 |
| 57 | Los Angeles | 06-05-2026 14:00 | 18,2 | 67,2 | 0 | 1,3 | 312 | 606,9 | 1003,9 |
| 56 | Los Angeles | 06-05-2026 13:45 | 18,2 | 69,4 | 0 | 1,3 | 299 | 624,4 | 1003,6 |
| 55 | Los Angeles | 06-05-2026 13:30 | 18,5 | 74 | 0 | 1 | 274 | 633,1 | 1003,1 |
| 54 | Los Angeles | 06-05-2026 13:15 | 18,1 | 79 | 0 | 1,3 | 298 | 645,6 | 1002,6 |
| 53 | Los Angeles | 06-05-2026 13:00 | 18,4 | 85,7 | 0 | 1 | 291 | 650,6 | 1002,3 |
| 52 | Los Angeles | 06-05-2026 12:45 | 16,5 | 91,5 | 0 | 1 | 298 | 554,4 | 1002 |
| 51 | Los Angeles | 06-05-2026 12:30 | 14,9 | 95,5 | 0 | 0,7 | 305 | 308,1 | 1001,8 |
| 50 | Los Angeles | 06-05-2026 12:15 | 14,2 | 96,8 | 0 | 1,3 | 305 | 196,9 | 1001,5 |
| 49 | Los Angeles | 06-05-2026 12:00 | 13,9 | 98 | 0 | 0,7 | 305 | 128,1 | 1001,4 |
| 48 | Los Angeles | 06-05-2026 11:45 | 14 | 98,2 | 0,4 | 0,3 | 300 | 93,1 | 1001,1 |
| 47 | Los Angeles | 06-05-2026 11:30 | 14,4 | 98,6 | 0 | 0,7 | 295 | 101,9 | 1000,6 |
| 46 | Los Angeles | 06-05-2026 11:15 | 14,4 | 98,8 | 0,2 | 0,7 | 291 | 136,9 | 1000 |
| 45 | Los Angeles | 06-05-2026 11:00 | 14,3 | 98,8 | 0 | 1 | 312 | 86,9 | 999,8 |
| 44 | Los Angeles | 06-05-2026 10:45 | 14,3 | 99 | 0 | 0,7 | 309 | 164,4 | 999,5 |
| 43 | Los Angeles | 06-05-2026 10:30 | 13,7 | 99 | 1 | 1 | 284 | 61,9 | 999,4 |
| 42 | Los Angeles | 06-05-2026 10:15 | 13,6 | 99 | 1 | 1,3 | 306 | 19,4 | 999 |
| 41 | Los Angeles | 06-05-2026 10:00 | 13,5 | 98,9 | 0,6 | 1,3 | 317 | 15,6 | 998,6 |
| 40 | Los Angeles | 06-05-2026 09:45 | 13,4 | 98,9 | 0,4 | 0,7 | 326 | 14,4 | 998,5 |
| 39 | Los Angeles | 06-05-2026 09:30 | 13,3 | 98,9 | 0,2 | 1 | 336 | 13,1 | 998,3 |
| 38 | Los Angeles | 06-05-2026 09:15 | 13,1 | 98,9 | 1,4 | 1,3 | 348 | 18,1 | 998,1 |
| 37 | Los Angeles | 06-05-2026 09:00 | 13,1 | 98,7 | 1,2 | 1 | 358 | 14,4 | 998 |
| 36 | Los Angeles | 06-05-2026 08:45 | 13,2 | 98,7 | 0,2 | 1,7 | 7 | 8,1 | 997,8 |
| 35 | Los Angeles | 06-05-2026 08:30 | 13,1 | 98,9 | 0,2 | 1,3 | 11 | 23,1 | 997,5 |
| 34 | Los Angeles | 06-05-2026 08:15 | 13,1 | 98,8 | 0,4 | 1,3 | 10 | 4,4 | 997,5 |
| 33 | Los Angeles | 06-05-2026 08:00 | 13,1 | 98,9 | 0,2 | 1,3 | 7 | 0,6 | 997,5 |
| 32 | Los Angeles | 06-05-2026 07:45 | 13,1 | 98,9 | 0,8 | 1,3 | 7 | 0,6 | 997,7 |
| 31 | Los Angeles | 06-05-2026 07:30 | 13,2 | 98,8 | 1,2 | 1 | 1 | 0,6 | 997,6 |
| 30 | Los Angeles | 06-05-2026 07:15 | 13,2 | 98,9 | 0,4 | 1 | 10 | 0,6 | 997,5 |
| 29 | Los Angeles | 06-05-2026 07:00 | 13,2 | 98,9 | 0 | 1 | 1 | 0,6 | 997,6 |
| 28 | Los Angeles | 06-05-2026 06:45 | 13,1 | 98,9 | 0 | 1,3 | 347 | 0,6 | 997,6 |
| 27 | Los Angeles | 06-05-2026 06:30 | 13,2 | 98,8 | 0,2 | 1,3 | 0 | 0,6 | 997,5 |
| 26 | Los Angeles | 06-05-2026 06:15 | 13,1 | 98,9 | 0 | 1,3 | 7 | 0,6 | 997,4 |
| 25 | Los Angeles | 06-05-2026 06:00 | 13,1 | 99 | 0 | 1,3 | 11 | 0,6 | 997,4 |
| 24 | Los Angeles | 06-05-2026 05:45 | 13 | 99 | 1,2 | 1 | 6 | 0,6 | 997,4 |
| 23 | Los Angeles | 06-05-2026 05:30 | 13,2 | 98,9 | 1 | 1 | 1 | 0,6 | 997,8 |
| 22 | Los Angeles | 06-05-2026 05:15 | 13,2 | 98,8 | 0,8 | 1,3 | 8 | 0,6 | 997,6 |
| 21 | Los Angeles | 06-05-2026 05:00 | 13,3 | 98,9 | 0,2 | 1,3 | 8 | 0,6 | 997,7 |
| 20 | Los Angeles | 06-05-2026 04:45 | 13,3 | 99 | 0,2 | 1,3 | 358 | 0,6 | 997,8 |
| 19 | Los Angeles | 06-05-2026 04:30 | 13,3 | 99 | 0 | 1,3 | 7 | 0,6 | 997,7 |
| 18 | Los Angeles | 06-05-2026 04:15 | 13,3 | 99,1 | 0 | 1 | 6 | 0,6 | 998 |
| 17 | Los Angeles | 06-05-2026 04:00 | 13,3 | 99,1 | 0 | 1,3 | 355 | 0,6 | 998 |
| 16 | Los Angeles | 06-05-2026 03:45 | 13,3 | 99,1 | 0,2 | 1 | 355 | 0,6 | 998,1 |
| 15 | Los Angeles | 06-05-2026 03:30 | 13,2 | 99,1 | 0,2 | 0,7 | 334 | 0,6 | 998,4 |
| 14 | Los Angeles | 06-05-2026 03:15 | 13,2 | 99 | 0,2 | 0,7 | 0 | 0,6 | 998,5 |
| 13 | Los Angeles | 06-05-2026 03:00 | 13,1 | 99 | 0,4 | 0,7 | 351 | 0,6 | 998,7 |
| 12 | Los Angeles | 06-05-2026 02:45 | 13,1 | 99 | 1,2 | 0,7 | 340 | 0,6 | 998,8 |
| 11 | Los Angeles | 06-05-2026 02:30 | 13,1 | 99 | 1 | 0,7 | 340 | 0,6 | 998,9 |
| 10 | Los Angeles | 06-05-2026 02:15 | 13,1 | 99 | 0,8 | 0,7 | 358 | 0,6 | 999,1 |
| 9 | Los Angeles | 06-05-2026 02:00 | 13,1 | 99 | 0,6 | 0,7 | 330 | 0,6 | 998,9 |
| 8 | Los Angeles | 06-05-2026 01:45 | 13,2 | 99,1 | 0,6 | 0,7 | 14 | 0,6 | 998,8 |
| 7 | Los Angeles | 06-05-2026 01:30 | 13,1 | 99,1 | 0,4 | 1 | 45 | 0,6 | 998,8 |
| 6 | Los Angeles | 06-05-2026 01:15 | 13 | 99,1 | 0,6 | 0,7 | 56 | 0,6 | 998,8 |
| 5 | Los Angeles | 06-05-2026 01:00 | 12,9 | 99 | 0,2 | 0,3 | 74 | 0,6 | 999,1 |
| 4 | Los Angeles | 06-05-2026 00:45 | 12,9 | 99 | 1,4 | 0,3 | 38 | 0,6 | 999,4 |
| 3 | Los Angeles | 06-05-2026 00:30 | 12,9 | 98,8 | 1 | 0,3 | 253 | 0,6 | 1000,3 |
| 2 | Los Angeles | 06-05-2026 00:15 | 12,9 | 98,8 | 1,6 | 0,3 | 11 | 0,6 | 999,8 |
| 1 | Los Angeles | 06-05-2026 00:00 | 13 | 98,9 | 1 | 0,3 | 0 | 0,6 | 1000,2 |